Lecoma, Missouri
Current Conditions -  °F | °C
As of 2:58 PM on Wednesday 17 Dec 2014 (Local Time) from KTBN Reporting Station
Overcast Overcast  
Wind Chill: 35°   Ceiling: 8500
Heat Index: 35°   Visibility: 10mi
Dew Point: 24°   Wind: 3mph
Humidity: 62%   Direction: 350°N
Pressure: 30.22"   Gusts: NA
Location:  37.78°N, 91.73°W
Report Text: KTBN 172058Z AUTO 35003KT 10SM OVC085 02/M05 A3022 RMK AO2 SLP247 T00191047 57016
Loading
Personal Weather Stations






























Interactive Weather Map New forecast layout! Learn more

10-Day Weather Forecast

Advertisements
Track Severe Weather on mobile